Time;durP1;ratioP1;P1;durP2;ratioP2;P2;SDS_P1;SDS_P2;PMS_P1;PMS_P2;Temp;Humidity;BMP_temperature;BMP_pressure;BME280_temperature;BME280_humidity;BME280_pressure;Samples;Min_cycle;Max_cycle;Signal;HPM_P1;HPM_P2
2022/04/24 00:01:59;;;;;;;5.20;4.90;;;;;;;;;;5003652;28;102437;-72
2022/04/24 00:04:26;;;;;;;5.50;5.10;;;;;;;;;;5010046;28;99588;-72
2022/04/24 00:06:53;;;;;;;5.10;4.70;;;;;;;;;;5007912;28;99340;-72
2022/04/24 00:09:20;;;;;;;4.93;4.63;;;;;;;;;;4990938;28;98639;-72
2022/04/24 00:11:46;;;;;;;5.15;4.75;;;;;;;;;;4991964;28;99066;-72
2022/04/24 00:14:14;;;;;;;5.00;4.60;;;;;;;;;;5008962;28;100320;-72
2022/04/24 00:16:41;;;;;;;5.05;4.68;;;;;;;;;;5007898;28;98555;-72
2022/04/24 00:19:08;;;;;;;6.05;5.60;;;;;;;;;;5009301;28;99238;-72
2022/04/24 00:21:34;;;;;;;5.50;5.03;;;;;;;;;;5006836;28;99468;-72
2022/04/24 00:24:00;;;;;;;7.68;5.57;;;;;;;;;;4991849;28;100045;-72
2022/04/24 00:26:27;;;;;;;6.03;5.63;;;;;;;;;;4992219;28;100338;-72
2022/04/24 00:28:53;;;;;;;11.02;5.25;;;;;;;;;;5007191;28;98925;-71
2022/04/24 00:31:20;;;;;;;5.55;5.15;;;;;;;;;;5008120;28;100362;-72
2022/04/24 00:33:47;;;;;;;5.50;4.57;;;;;;;;;;5008633;28;100248;-72
2022/04/24 00:36:13;;;;;;;6.28;5.72;;;;;;;;;;5009142;28;97984;-72
2022/04/24 00:38:39;;;;;;;6.10;5.70;;;;;;;;;;5007096;28;99290;-72
2022/04/24 00:41:06;;;;;;;6.40;6.00;;;;;;;;;;4997118;28;100649;-72
2022/04/24 00:43:32;;;;;;;6.32;5.72;;;;;;;;;;4988040;28;99264;-71
2022/04/24 00:46:37;;;;;;;7.20;6.53;;;;;;;;;;4993436;28;100424;-72
2022/04/24 00:49:04;;;;;;;6.47;5.78;;;;;;;;;;4995682;28;100285;-72
2022/04/24 00:51:30;;;;;;;6.05;5.32;;;;;;;;;;4998489;28;99150;-71
2022/04/24 00:53:57;;;;;;;7.32;6.72;;;;;;;;;;4991780;28;99515;-72
2022/04/24 00:56:30;;;;;;;5.40;4.90;;;;;;;;;;4997148;28;98577;-72
2022/04/24 00:59:01;;;;;;;8.93;7.13;;;;;;;;;;5009308;28;100327;-71
2022/04/24 01:01:27;;;;;;;11.38;7.25;;;;;;;;;;4997627;28;100430;-72
2022/04/24 01:03:55;;;;;;;7.90;7.20;;;;;;;;;;4988720;28;98542;-71
2022/04/24 01:06:21;;;;;;;8.30;7.50;;;;;;;;;;4990947;28;100071;-72
2022/04/24 01:08:48;;;;;;;8.00;7.00;;;;;;;;;;4988141;28;100582;-71
2022/04/24 01:11:14;;;;;;;8.70;7.93;;;;;;;;;;4998733;28;100556;-72
2022/04/24 01:13:40;;;;;;;8.80;8.00;;;;;;;;;;5009553;28;99589;-71
2022/04/24 01:16:07;;;;;;;9.48;8.57;;;;;;;;;;5010308;28;99915;-72
2022/04/24 01:18:33;;;;;;;12.77;8.15;;;;;;;;;;5011293;28;99807;-72
2022/04/24 01:21:07;;;;;;;12.40;7.30;;;;;;;;;;5010997;28;100688;-71
2022/04/24 01:23:34;;;;;;;8.02;7.20;;;;;;;;;;4998719;28;98553;-72
2022/04/24 01:26:00;;;;;;;10.88;9.00;;;;;;;;;;5008705;28;100045;-72
2022/04/24 01:28:26;;;;;;;9.15;8.48;;;;;;;;;;5011576;28;100293;-71
2022/04/24 01:30:53;;;;;;;7.82;7.13;;;;;;;;;;5010683;28;98584;-71
2022/04/24 01:33:19;;;;;;;8.65;7.47;;;;;;;;;;5012791;28;100126;-72
2022/04/24 01:35:45;;;;;;;7.65;7.00;;;;;;;;;;5007268;28;98654;-72
2022/04/24 01:38:12;;;;;;;8.77;7.90;;;;;;;;;;5012428;28;99832;-71
2022/04/24 01:40:38;;;;;;;12.60;8.48;;;;;;;;;;5009165;28;100415;-72
2022/04/24 01:43:05;;;;;;;8.60;7.72;;;;;;;;;;5012022;28;98509;-72
2022/04/24 01:45:31;;;;;;;12.40;7.43;;;;;;;;;;5008651;28;99807;-72
2022/04/24 01:47:58;;;;;;;9.10;8.23;;;;;;;;;;5010721;28;100216;-72
2022/04/24 01:50:24;;;;;;;10.18;8.48;;;;;;;;;;4996095;28;97914;-71
2022/04/24 01:52:50;;;;;;;7.60;6.97;;;;;;;;;;4993723;28;99400;-72
2022/04/24 01:55:18;;;;;;;8.40;7.72;;;;;;;;;;5004148;28;98523;-72
2022/04/24 01:57:50;;;;;;;9.63;8.68;;;;;;;;;;5009819;28;99746;-72
2022/04/24 02:00:16;;;;;;;8.98;8.00;;;;;;;;;;5008133;28;99448;-72
2022/04/24 02:02:43;;;;;;;9.77;8.68;;;;;;;;;;5010907;28;99369;-72
2022/04/24 02:05:09;;;;;;;10.75;8.43;;;;;;;;;;5010533;28;99863;-72
2022/04/24 02:07:36;;;;;;;10.45;8.45;;;;;;;;;;5009106;28;99321;-72
2022/04/24 02:10:03;;;;;;;10.27;9.32;;;;;;;;;;5009776;28;98773;-72
2022/04/24 02:12:30;;;;;;;9.95;8.95;;;;;;;;;;5011759;28;99748;-72
2022/04/24 02:14:56;;;;;;;10.93;8.70;;;;;;;;;;5012723;28;98678;-71
2022/04/24 02:17:23;;;;;;;9.48;8.68;;;;;;;;;;5009822;28;98764;-71
2022/04/24 02:19:49;;;;;;;11.02;9.57;;;;;;;;;;5005791;28;100235;-71
2022/04/24 02:22:15;;;;;;;10.43;8.80;;;;;;;;;;5009255;28;99253;-72
2022/04/24 02:24:42;;;;;;;8.30;7.45;;;;;;;;;;5008574;28;100646;-72
2022/04/24 02:27:09;;;;;;;11.65;9.30;;;;;;;;;;4998106;28;100438;-72
2022/04/24 02:29:35;;;;;;;7.63;7.00;;;;;;;;;;5008231;28;98599;-72
2022/04/24 02:32:02;;;;;;;9.43;8.35;;;;;;;;;;5011469;28;99760;-72
2022/04/24 02:34:28;;;;;;;10.05;9.15;;;;;;;;;;5009025;28;100526;-72
2022/04/24 02:36:55;;;;;;;9.20;8.40;;;;;;;;;;5012101;28;98842;-72
2022/04/24 02:39:21;;;;;;;14.05;8.43;;;;;;;;;;5011261;28;99519;-72
2022/04/24 02:41:47;;;;;;;7.85;6.90;;;;;;;;;;5010381;28;98608;-72
2022/04/24 02:44:20;;;;;;;;;;;;;;;;;;5011168;28;99894;-72
2022/04/24 02:46:46;;;;;;;8.80;7.97;;;;;;;;;;4994048;28;130684;-72
2022/04/24 02:49:13;;;;;;;8.88;7.93;;;;;;;;;;5002689;28;98588;-71
2022/04/24 02:51:39;;;;;;;8.80;8.00;;;;;;;;;;5006679;28;100808;-71
2022/04/24 02:54:06;;;;;;;8.95;7.95;;;;;;;;;;5008992;28;100658;-72
2022/04/24 02:56:32;;;;;;;10.55;8.43;;;;;;;;;;5008366;28;99124;-71
2022/04/24 02:58:59;;;;;;;9.43;8.27;;;;;;;;;;5013662;28;99915;-72
2022/04/24 03:01:25;;;;;;;10.52;8.30;;;;;;;;;;4997849;28;98661;-72
2022/04/24 03:03:51;;;;;;;9.35;8.07;;;;;;;;;;4990345;28;98953;-72
2022/04/24 03:06:18;;;;;;;7.72;7.00;;;;;;;;;;4998688;28;100977;-72
2022/04/24 03:08:46;;;;;;;8.32;7.53;;;;;;;;;;5010411;28;98533;-72
2022/04/24 03:11:13;;;;;;;8.70;7.93;;;;;;;;;;5007574;28;99372;-72
2022/04/24 03:13:40;;;;;;;8.20;7.00;;;;;;;;;;5009716;28;99533;-72
2022/04/24 03:16:06;;;;;;;11.73;7.63;;;;;;;;;;5009136;28;99449;-72
2022/04/24 03:18:33;;;;;;;8.95;7.90;;;;;;;;;;5006244;28;99179;-72
2022/04/24 03:20:59;;;;;;;6.82;6.22;;;;;;;;;;4998579;28;100557;-72
2022/04/24 03:23:25;;;;;;;7.55;6.95;;;;;;;;;;5010087;28;100100;-72
2022/04/24 03:25:52;;;;;;;8.75;7.82;;;;;;;;;;5007759;28;100182;-72
2022/04/24 03:28:18;;;;;;;8.45;7.63;;;;;;;;;;5010872;28;97749;-71
2022/04/24 03:30:44;;;;;;;8.65;7.85;;;;;;;;;;5008260;28;98570;-72
2022/04/24 03:33:10;;;;;;;8.25;7.55;;;;;;;;;;5009306;28;99253;-72
2022/04/24 03:35:37;;;;;;;7.72;7.10;;;;;;;;;;5007672;28;99327;-72
2022/04/24 03:38:03;;;;;;;7.82;7.07;;;;;;;;;;5010219;28;100317;-72
2022/04/24 03:40:29;;;;;;;8.30;7.70;;;;;;;;;;5007092;28;100211;-72
2022/04/24 03:42:56;;;;;;;6.53;5.93;;;;;;;;;;5013270;28;98509;-72
2022/04/24 03:45:22;;;;;;;9.40;7.50;;;;;;;;;;5007846;28;99687;-72
2022/04/24 03:47:48;;;;;;;7.50;6.90;;;;;;;;;;5010003;28;98570;-72
2022/04/24 03:50:15;;;;;;;7.82;7.22;;;;;;;;;;5007014;28;99964;-72
2022/04/24 03:52:41;;;;;;;8.52;7.70;;;;;;;;;;4995558;28;98957;-72
2022/04/24 03:55:08;;;;;;;8.90;7.18;;;;;;;;;;5003557;28;99810;-72
2022/04/24 03:57:34;;;;;;;7.95;7.28;;;;;;;;;;5009730;28;102105;-72
2022/04/24 04:00:01;;;;;;;7.85;7.05;;;;;;;;;;5006687;28;102073;-71
2022/04/24 04:02:46;;;;;;;8.50;6.53;;;;;;;;;;5010231;28;98655;-71
2022/04/24 04:05:13;;;;;;;7.05;6.50;;;;;;;;;;5008053;28;100085;-71
2022/04/24 04:07:40;;;;;;;8.48;6.93;;;;;;;;;;5008810;28;99086;-71
2022/04/24 04:10:07;;;;;;;6.97;6.38;;;;;;;;;;4995998;28;100004;-72
2022/04/24 04:12:33;;;;;;;8.45;6.72;;;;;;;;;;5003031;28;100314;-72
2022/04/24 04:15:00;;;;;;;11.23;7.80;;;;;;;;;;5006522;28;98569;-72
2022/04/24 04:17:26;;;;;;;6.97;5.97;;;;;;;;;;5009702;28;98988;-72
2022/04/24 04:19:53;;;;;;;8.50;7.70;;;;;;;;;;5003018;28;100217;-72
2022/04/24 04:22:19;;;;;;;7.78;6.57;;;;;;;;;;5007063;28;98521;-72
2022/04/24 04:24:45;;;;;;;7.78;7.13;;;;;;;;;;5010098;28;99834;-72
2022/04/24 04:27:12;;;;;;;7.53;6.85;;;;;;;;;;5009724;28;98977;-72
2022/04/24 04:29:38;;;;;;;6.55;5.95;;;;;;;;;;5006824;28;99443;-72
2022/04/24 04:32:05;;;;;;;7.30;6.60;;;;;;;;;;5008006;28;100436;-72
2022/04/24 04:34:31;;;;;;;6.90;6.13;;;;;;;;;;5006971;28;98960;-71
2022/04/24 04:36:58;;;;;;;6.30;5.80;;;;;;;;;;5009335;28;99962;-72
2022/04/24 04:39:24;;;;;;;7.78;7.07;;;;;;;;;;5006956;28;100675;-74
2022/04/24 04:41:51;;;;;;;6.60;6.00;;;;;;;;;;5007660;28;98458;-71
2022/04/24 04:44:17;;;;;;;8.65;6.65;;;;;;;;;;5009448;28;99770;-72
2022/04/24 04:46:44;;;;;;;7.82;7.00;;;;;;;;;;5010506;28;100317;-73
2022/04/24 04:49:10;;;;;;;7.00;6.32;;;;;;;;;;5000286;28;99874;-72
2022/04/24 04:51:36;;;;;;;7.32;6.82;;;;;;;;;;4996152;28;99470;-72
2022/04/24 04:54:03;;;;;;;7.13;6.35;;;;;;;;;;5012891;28;98525;-72
2022/04/24 04:56:29;;;;;;;7.47;6.85;;;;;;;;;;5010105;28;99890;-72
2022/04/24 04:58:55;;;;;;;7.20;6.50;;;;;;;;;;5012386;28;99380;-72
2022/04/24 05:01:22;;;;;;;8.35;6.78;;;;;;;;;;5010817;28;98537;-72
2022/04/24 05:03:49;;;;;;;8.10;7.38;;;;;;;;;;5012067;28;100030;-72
2022/04/24 05:06:16;;;;;;;7.28;6.25;;;;;;;;;;5011062;28;98576;-72
2022/04/24 05:08:42;;;;;;;7.20;6.22;;;;;;;;;;5013182;28;99426;-72
2022/04/24 05:11:09;;;;;;;8.70;6.07;;;;;;;;;;5010957;28;100838;-71
2022/04/24 05:13:35;;;;;;;7.30;6.55;;;;;;;;;;5010162;28;99390;-71
2022/04/24 05:16:02;;;;;;;9.18;6.95;;;;;;;;;;5012553;28;100677;-71
2022/04/24 05:18:28;;;;;;;6.25;4.82;;;;;;;;;;5008292;28;100267;-71
2022/04/24 05:20:56;;;;;;;9.15;6.20;;;;;;;;;;5012500;28;98650;-72
2022/04/24 05:23:22;;;;;;;12.15;6.35;;;;;;;;;;5008820;28;100181;-72
2022/04/24 05:25:49;;;;;;;7.10;6.60;;;;;;;;;;4991441;28;100296;-72
2022/04/24 05:28:15;;;;;;;6.97;6.35;;;;;;;;;;4991882;28;98599;-72
2022/04/24 05:30:42;;;;;;;5.90;5.50;;;;;;;;;;5015395;28;100046;-74
2022/04/24 05:33:08;;;;;;;7.93;6.55;;;;;;;;;;5011570;28;99660;-72
2022/04/24 05:35:34;;;;;;;7.07;5.82;;;;;;;;;;5009417;28;99859;-72
2022/04/24 05:38:01;;;;;;;5.85;5.40;;;;;;;;;;5010549;28;101169;-72
2022/04/24 05:40:27;;;;;;;8.20;5.93;;;;;;;;;;5010171;28;98530;-72
2022/04/24 05:42:54;;;;;;;6.57;5.97;;;;;;;;;;5012068;28;99149;-72
2022/04/24 05:45:24;;;;;;;9.38;5.78;;;;;;;;;;5008418;28;100250;-72
2022/04/24 05:47:54;;;;;;;6.75;5.97;;;;;;;;;;4975424;28;98585;-72
2022/04/24 05:50:21;;;;;;;6.47;5.82;;;;;;;;;;5010897;28;99776;-72
2022/04/24 05:52:48;;;;;;;6.68;6.03;;;;;;;;;;5011188;28;98756;-72
2022/04/24 05:55:14;;;;;;;5.93;4.85;;;;;;;;;;5009881;28;99824;-72
2022/04/24 05:57:41;;;;;;;7.18;6.28;;;;;;;;;;5009976;28;100251;-72
2022/04/24 06:00:08;;;;;;;6.57;5.90;;;;;;;;;;5009370;28;98558;-72
2022/04/24 06:02:40;;;;;;;;;;;;;;;;;;5009987;28;100778;-72
2022/04/24 06:05:07;;;;;;;5.72;5.25;;;;;;;;;;5011768;28;128063;-72
2022/04/24 06:07:33;;;;;;;7.78;4.72;;;;;;;;;;5008788;28;98496;-72
2022/04/24 06:10:00;;;;;;;5.53;5.03;;;;;;;;;;5009568;28;99986;-72
2022/04/24 06:12:26;;;;;;;7.25;5.85;;;;;;;;;;5012793;28;100066;-72
2022/04/24 06:14:52;;;;;;;5.13;4.82;;;;;;;;;;4999996;28;100414;-72
2022/04/24 06:17:19;;;;;;;5.95;5.45;;;;;;;;;;4999361;28;99610;-72
2022/04/24 06:19:45;;;;;;;5.45;5.05;;;;;;;;;;5006964;28;97848;-72
2022/04/24 06:22:11;;;;;;;6.50;5.45;;;;;;;;;;5007337;28;100485;-71
2022/04/24 06:24:38;;;;;;;9.02;5.25;;;;;;;;;;5010819;28;100208;-71
2022/04/24 06:27:04;;;;;;;6.40;5.90;;;;;;;;;;4985205;28;100580;-71
2022/04/24 06:29:31;;;;;;;5.72;5.32;;;;;;;;;;4986633;28;101927;-71
2022/04/24 06:31:58;;;;;;;11.15;5.15;;;;;;;;;;4990734;28;100581;-71
2022/04/24 06:34:24;;;;;;;8.10;4.78;;;;;;;;;;4983513;28;100186;-71
2022/04/24 06:36:51;;;;;;;5.90;5.30;;;;;;;;;;4980145;28;100355;-72
2022/04/24 06:39:17;;;;;;;6.35;5.85;;;;;;;;;;4979483;28;100166;-71
2022/04/24 06:41:43;;;;;;;4.82;4.43;;;;;;;;;;4998063;28;99065;-72
2022/04/24 06:44:20;;;;;;;5.88;5.47;;;;;;;;;;4996496;28;100845;-71
2022/04/24 06:46:46;;;;;;;7.93;5.40;;;;;;;;;;4989421;28;98903;-71
2022/04/24 06:49:13;;;;;;;5.25;4.57;;;;;;;;;;4998397;28;99295;-71
2022/04/24 06:51:39;;;;;;;5.43;5.03;;;;;;;;;;4984057;28;101237;-71
2022/04/24 06:54:06;;;;;;;5.50;5.10;;;;;;;;;;4990456;28;99306;-71
2022/04/24 06:56:32;;;;;;;4.72;4.30;;;;;;;;;;5004673;28;99026;-71
2022/04/24 06:58:58;;;;;;;10.77;4.72;;;;;;;;;;5011107;28;98503;-71
2022/04/24 07:01:26;;;;;;;5.38;5.07;;;;;;;;;;4996390;28;100034;-70
2022/04/24 07:03:53;;;;;;;6.28;5.57;;;;;;;;;;4999109;28;100150;-71
2022/04/24 07:06:22;;;;;;;6.18;4.88;;;;;;;;;;4997011;28;98862;-71
2022/04/24 07:08:48;;;;;;;15.48;5.25;;;;;;;;;;4995230;28;100328;-71
2022/04/24 07:11:15;;;;;;;5.20;4.80;;;;;;;;;;4991801;28;99492;-71
2022/04/24 07:13:41;;;;;;;5.75;5.25;;;;;;;;;;4982508;28;98557;-71
2022/04/24 07:16:08;;;;;;;5.22;4.65;;;;;;;;;;4990285;28;99367;-71
2022/04/24 07:18:35;;;;;;;10.38;4.72;;;;;;;;;;4992310;28;100251;-71
2022/04/24 07:21:02;;;;;;;5.43;5.03;;;;;;;;;;4989707;28;99526;-72
2022/04/24 07:23:29;;;;;;;9.40;4.88;;;;;;;;;;4997750;28;100219;-71
2022/04/24 07:25:55;;;;;;;5.38;4.38;;;;;;;;;;4994319;28;101046;-71
2022/04/24 07:28:22;;;;;;;13.52;5.45;;;;;;;;;;4982019;28;102192;-71
2022/04/24 07:30:49;;;;;;;4.93;4.63;;;;;;;;;;4970833;28;100091;-71
2022/04/24 07:33:16;;;;;;;5.45;5.05;;;;;;;;;;5008994;28;97780;-71
2022/04/24 07:35:42;;;;;;;4.97;4.57;;;;;;;;;;5010091;28;99318;-71
2022/04/24 07:38:09;;;;;;;7.97;5.07;;;;;;;;;;5007203;28;101063;-71
2022/04/24 07:40:36;;;;;;;5.32;4.85;;;;;;;;;;5012787;28;99308;-71
2022/04/24 07:43:03;;;;;;;5.22;4.72;;;;;;;;;;4996034;28;99458;-71
2022/04/24 07:45:31;;;;;;;5.35;5.00;;;;;;;;;;5009209;28;98536;-71
2022/04/24 07:47:58;;;;;;;5.13;4.72;;;;;;;;;;5001607;28;99894;-71
2022/04/24 07:50:25;;;;;;;5.57;4.40;;;;;;;;;;4993565;28;100316;-71
2022/04/24 07:52:52;;;;;;;11.13;5.28;;;;;;;;;;4998940;28;99257;-70
2022/04/24 07:55:19;;;;;;;9.30;5.35;;;;;;;;;;4994839;28;99484;-71
2022/04/24 07:57:49;;;;;;;6.18;4.68;;;;;;;;;;5009378;28;99620;-70
2022/04/24 08:00:17;;;;;;;5.82;5.25;;;;;;;;;;5006159;28;98844;-71
2022/04/24 08:02:47;;;;;;;5.80;5.30;;;;;;;;;;5008310;28;99285;-71
2022/04/24 08:05:32;;;;;;;5.32;4.40;;;;;;;;;;4982507;28;99405;-71
2022/04/24 08:08:00;;;;;;;5.78;5.28;;;;;;;;;;4988594;28;101133;-71
2022/04/24 08:10:27;;;;;;;5.40;5.03;;;;;;;;;;4989325;28;100387;-71
2022/04/24 08:12:53;;;;;;;5.32;4.82;;;;;;;;;;5001324;28;98687;-71
2022/04/24 08:15:20;;;;;;;4.63;4.32;;;;;;;;;;4995330;28;99951;-71
2022/04/24 08:17:46;;;;;;;5.88;4.93;;;;;;;;;;4976415;28;100500;-71
2022/04/24 08:20:14;;;;;;;6.43;4.85;;;;;;;;;;4980503;28;98777;-72
2022/04/24 08:22:42;;;;;;;5.00;4.60;;;;;;;;;;4983213;28;99868;-72
2022/04/24 08:25:09;;;;;;;5.55;4.03;;;;;;;;;;4983000;28;99236;-72
2022/04/24 08:27:36;;;;;;;5.25;4.72;;;;;;;;;;4977638;28;99960;-71
2022/04/24 08:30:07;;;;;;;5.55;5.03;;;;;;;;;;4980118;28;100960;-71
2022/04/24 08:32:34;;;;;;;5.10;4.80;;;;;;;;;;4990213;28;98514;-72
2022/04/24 08:35:01;;;;;;;5.45;4.97;;;;;;;;;;4992257;28;99713;-73
2022/04/24 08:37:28;;;;;;;5.18;4.47;;;;;;;;;;4985584;28;100140;-72
2022/04/24 08:39:55;;;;;;;5.22;4.90;;;;;;;;;;4996252;28;98614;-74
2022/04/24 08:42:21;;;;;;;5.75;4.97;;;;;;;;;;5004210;28;99162;-73
2022/04/24 08:44:49;;;;;;;5.97;5.40;;;;;;;;;;5011825;28;100202;-74
2022/04/24 08:47:18;;;;;;;5.07;4.75;;;;;;;;;;5009774;28;100005;-73
2022/04/24 08:49:45;;;;;;;7.20;5.85;;;;;;;;;;5008081;28;100477;-73
2022/04/24 08:52:12;;;;;;;5.25;4.80;;;;;;;;;;5009243;28;98506;-73
2022/04/24 08:54:40;;;;;;;4.15;3.78;;;;;;;;;;5008425;28;99249;-73
2022/04/24 08:57:08;;;;;;;5.85;5.28;;;;;;;;;;4989148;28;100437;-73
2022/04/24 08:59:36;;;;;;;6.55;5.82;;;;;;;;;;4989138;28;98556;-74
2022/04/24 09:02:02;;;;;;;5.68;5.25;;;;;;;;;;4988870;28;98871;-74
2022/04/24 09:04:33;;;;;;;8.20;5.60;;;;;;;;;;4988560;28;100176;-73
2022/04/24 09:07:01;;;;;;;6.65;6.05;;;;;;;;;;4992650;28;98583;-73
2022/04/24 09:09:27;;;;;;;5.70;5.18;;;;;;;;;;4987666;28;100242;-74
2022/04/24 09:12:12;;;;;;;8.40;6.07;;;;;;;;;;4989447;28;97816;-73
2022/04/24 09:14:49;;;;;;;8.90;5.70;;;;;;;;;;4988651;28;98976;-73
2022/04/24 09:17:17;;;;;;;9.73;5.82;;;;;;;;;;4987592;28;99955;-73
2022/04/24 09:19:44;;;;;;;6.70;6.10;;;;;;;;;;4986998;28;99360;-73
2022/04/24 09:22:11;;;;;;;6.90;6.30;;;;;;;;;;4989020;28;100083;-74
2022/04/24 09:24:39;;;;;;;7.75;5.50;;;;;;;;;;4988228;28;100619;-74
2022/04/24 09:27:06;;;;;;;6.10;5.57;;;;;;;;;;4989188;28;98890;-73
2022/04/24 09:29:32;;;;;;;5.97;5.18;;;;;;;;;;4992030;28;99051;-73
2022/04/24 09:31:58;;;;;;;5.60;5.03;;;;;;;;;;4989168;28;98628;-73
2022/04/24 09:34:30;;;;;;;6.95;5.53;;;;;;;;;;4992369;28;99211;-73
2022/04/24 09:37:03;;;;;;;6.05;5.55;;;;;;;;;;4991422;28;99560;-74
2022/04/24 09:39:31;;;;;;;5.55;5.15;;;;;;;;;;4992046;28;98995;-73
2022/04/24 09:42:00;;;;;;;6.28;5.88;;;;;;;;;;4992265;28;99495;-73
2022/04/24 09:44:34;;;;;;;6.78;5.32;;;;;;;;;;4990022;28;100252;-73
2022/04/24 09:47:24;;;;;;;8.18;5.03;;;;;;;;;;4991747;28;98577;-73
2022/04/24 09:49:51;;;;;;;12.25;5.88;;;;;;;;;;4992073;28;100030;-73
2022/04/24 09:52:22;;;;;;;5.50;5.10;;;;;;;;;;4994446;28;100219;-72
2022/04/24 09:54:50;;;;;;;6.93;5.75;;;;;;;;;;4992225;28;99897;-73
2022/04/24 09:57:17;;;;;;;7.50;5.30;;;;;;;;;;4991569;28;100178;-73
2022/04/24 09:59:44;;;;;;;5.75;4.88;;;;;;;;;;4990614;28;98649;-73
2022/04/24 10:02:11;;;;;;;5.65;5.15;;;;;;;;;;4992339;28;99970;-73
2022/04/24 10:04:39;;;;;;;6.85;6.13;;;;;;;;;;4991246;28;100231;-73
2022/04/24 10:07:07;;;;;;;6.03;5.53;;;;;;;;;;4991396;28;98815;-73
2022/04/24 10:09:34;;;;;;;5.88;4.95;;;;;;;;;;4990693;28;99952;-73
2022/04/24 10:12:11;;;;;;;7.18;5.72;;;;;;;;;;4994720;28;99527;-72
2022/04/24 10:14:42;;;;;;;7.13;6.05;;;;;;;;;;4991738;28;99882;-73
2022/04/24 10:17:20;;;;;;;5.75;5.35;;;;;;;;;;4990869;28;100185;-73
2022/04/24 10:19:46;;;;;;;6.78;6.10;;;;;;;;;;4990958;28;98527;-73
2022/04/24 10:22:16;;;;;;;7.03;5.57;;;;;;;;;;4993814;28;99590;-70
2022/04/24 10:24:43;;;;;;;6.38;5.78;;;;;;;;;;4990641;28;100278;-75
2022/04/24 10:27:11;;;;;;;6.22;5.68;;;;;;;;;;4987387;28;99467;-73
2022/04/24 10:29:48;;;;;;;5.50;5.00;;;;;;;;;;4985088;28;100866;-73
2022/04/24 10:32:25;;;;;;;7.88;6.30;;;;;;;;;;4981278;28;100295;-72
2022/04/24 10:34:52;;;;;;;7.20;6.45;;;;;;;;;;4984476;28;99758;-73
2022/04/24 10:37:26;;;;;;;5.57;4.85;;;;;;;;;;4984223;28;100245;-73
2022/04/24 10:39:58;;;;;;;12.52;6.50;;;;;;;;;;4986530;28;99451;-73
2022/04/24 10:42:31;;;;;;;8.30;6.20;;;;;;;;;;4982388;28;102113;-73
2022/04/24 10:45:04;;;;;;;8.95;6.50;;;;;;;;;;4980088;28;99384;-73
2022/04/24 10:47:43;;;;;;;14.02;5.43;;;;;;;;;;4984678;28;98585;-73
2022/04/24 10:50:10;;;;;;;6.78;6.00;;;;;;;;;;4986018;28;99346;-73
2022/04/24 10:52:43;;;;;;;11.02;6.00;;;;;;;;;;4989891;28;99410;-73
2022/04/24 10:55:12;;;;;;;5.75;5.28;;;;;;;;;;4990109;28;98660;-73
2022/04/24 10:57:45;;;;;;;6.05;5.47;;;;;;;;;;4993669;28;100248;-73
2022/04/24 11:00:19;;;;;;;5.47;5.03;;;;;;;;;;4990222;28;99709;-71
2022/04/24 11:02:47;;;;;;;6.25;5.57;;;;;;;;;;4990384;28;101883;-73
2022/04/24 11:05:18;;;;;;;5.03;4.65;;;;;;;;;;4990427;28;100666;-73
2022/04/24 11:07:45;;;;;;;7.78;5.15;;;;;;;;;;4990636;28;98485;-73
2022/04/24 11:10:11;;;;;;;11.52;6.68;;;;;;;;;;4989187;28;100394;-73
2022/04/24 11:12:39;;;;;;;4.55;4.15;;;;;;;;;;4986785;28;99481;-73
2022/04/24 11:15:07;;;;;;;10.10;6.40;;;;;;;;;;4980003;28;98548;-72
2022/04/24 11:17:34;;;;;;;6.35;5.47;;;;;;;;;;4985193;28;99803;-72
2022/04/24 11:20:08;;;;;;;12.35;6.30;;;;;;;;;;4974763;28;99452;-73
2022/04/24 11:22:52;;;;;;;5.45;4.90;;;;;;;;;;4989611;28;100007;-72
2022/04/24 11:25:19;;;;;;;10.25;7.22;;;;;;;;;;4987170;28;100481;-73
2022/04/24 11:27:49;;;;;;;11.15;5.22;;;;;;;;;;4981458;28;100089;-72
2022/04/24 11:30:17;;;;;;;9.95;4.97;;;;;;;;;;4978579;28;100064;-72
2022/04/24 11:32:57;;;;;;;6.07;5.13;;;;;;;;;;4974657;28;100147;-73
2022/04/24 11:35:24;;;;;;;5.38;4.88;;;;;;;;;;4983267;28;98765;-72
2022/04/24 11:37:51;;;;;;;5.85;4.93;;;;;;;;;;4979117;28;100219;-72
2022/04/24 11:40:18;;;;;;;10.68;4.82;;;;;;;;;;4980413;28;100408;-72
2022/04/24 11:43:06;;;;;;;6.85;4.75;;;;;;;;;;4987778;28;99574;-72
2022/04/24 11:51:10;;;;;;;3.83;3.53;;;;;;;;;;4980258;28;101824;-72
2022/04/24 11:53:57;;;;;;;5.80;4.38;;;;;;;;;;4979209;28;100533;-72
2022/04/24 11:56:23;;;;;;;8.02;4.18;;;;;;;;;;4979001;28;100054;-72
2022/04/24 11:58:50;;;;;;;7.38;3.35;;;;;;;;;;4981369;28;99998;-72
2022/04/24 12:01:18;;;;;;;6.93;3.75;;;;;;;;;;4981537;28;100057;-72
2022/04/24 12:03:45;;;;;;;4.05;2.90;;;;;;;;;;4977873;28;98548;-72
2022/04/24 12:06:13;;;;;;;4.03;3.72;;;;;;;;;;4979960;28;100335;-72
2022/04/24 12:08:46;;;;;;;3.90;3.50;;;;;;;;;;4983556;28;99704;-79
2022/04/24 12:11:26;;;;;;;11.57;3.28;;;;;;;;;;4975044;28;99786;-73
2022/04/24 12:14:05;;;;;;;4.82;3.42;;;;;;;;;;4978004;28;100560;-72
2022/04/24 12:16:32;;;;;;;6.22;3.40;;;;;;;;;;4979197;28;100590;-72
2022/04/24 12:19:03;;;;;;;3.10;2.80;;;;;;;;;;4979145;28;100710;-73
2022/04/24 12:21:31;;;;;;;8.88;2.85;;;;;;;;;;4984899;28;100488;-73
2022/04/24 12:23:58;;;;;;;3.53;2.85;;;;;;;;;;4984314;28;100040;-72
2022/04/24 12:26:24;;;;;;;3.35;2.92;;;;;;;;;;4991323;28;100002;-73
2022/04/24 12:28:51;;;;;;;5.32;2.88;;;;;;;;;;4989856;28;98498;-73
2022/04/24 12:31:22;;;;;;;3.05;2.72;;;;;;;;;;4989530;28;99676;-72
2022/04/24 12:33:54;;;;;;;3.40;2.80;;;;;;;;;;4988716;28;99828;-73
2022/04/24 12:36:21;;;;;;;5.22;2.72;;;;;;;;;;4990450;28;98519;-73
2022/04/24 12:38:57;;;;;;;3.05;2.83;;;;;;;;;;4989555;28;99177;-73
2022/04/24 12:41:31;;;;;;;7.45;2.90;;;;;;;;;;4987355;28;99967;-73
2022/04/24 12:43:58;;;;;;;3.95;2.80;;;;;;;;;;4989390;28;98566;-73
2022/04/24 12:46:24;;;;;;;2.97;2.78;;;;;;;;;;4989099;28;99992;-73
2022/04/24 12:48:52;;;;;;;5.53;2.80;;;;;;;;;;5008504;28;100168;-73
2022/04/24 12:51:21;;;;;;;3.78;3.28;;;;;;;;;;5009378;28;100313;-73
2022/04/24 12:53:48;;;;;;;5.65;3.17;;;;;;;;;;5008806;28;100208;-73
2022/04/24 12:56:14;;;;;;;5.45;3.08;;;;;;;;;;5008761;28;98585;-73
2022/04/24 12:58:42;;;;;;;6.85;3.17;;;;;;;;;;5003837;28;99769;-72
2022/04/24 13:01:11;;;;;;;7.55;3.00;;;;;;;;;;4997051;28;100906;-72
2022/04/24 13:03:39;;;;;;;2.97;2.75;;;;;;;;;;4994747;28;98714;-73
2022/04/24 13:06:09;;;;;;;4.07;2.80;;;;;;;;;;4995676;28;99858;-72
2022/04/24 13:08:37;;;;;;;2.70;2.45;;;;;;;;;;4993248;28;100494;-73
2022/04/24 13:11:04;;;;;;;3.60;2.97;;;;;;;;;;4996797;28;98963;-73
2022/04/24 13:13:32;;;;;;;6.30;3.05;;;;;;;;;;4997198;28;99510;-73
2022/04/24 13:18:46;;;;;;;3.33;2.92;;;;;;;;;;4995426;28;100248;-73
2022/04/24 13:21:13;;;;;;;12.73;3.38;;;;;;;;;;4996197;28;100200;-73
2022/04/24 13:23:39;;;;;;;4.57;3.53;;;;;;;;;;4996945;28;98645;-73
2022/04/24 13:26:05;;;;;;;3.00;2.80;;;;;;;;;;4995562;28;100055;-73
2022/04/24 13:28:35;;;;;;;5.88;2.60;;;;;;;;;;4995739;28;100356;-73
2022/04/24 13:31:05;;;;;;;3.88;2.80;;;;;;;;;;5000357;28;100063;-72
2022/04/24 13:33:32;;;;;;;2.80;2.60;;;;;;;;;;5002195;28;101098;-71
2022/04/24 13:35:58;;;;;;;3.65;3.17;;;;;;;;;;4995708;28;98636;-72
2022/04/24 13:38:24;;;;;;;6.30;3.83;;;;;;;;;;4989674;28;100281;-72
2022/04/24 13:40:53;;;;;;;3.10;2.90;;;;;;;;;;4995496;28;100529;-72
2022/04/24 13:43:21;;;;;;;3.03;2.83;;;;;;;;;;4989455;28;98737;-72
2022/04/24 13:45:49;;;;;;;3.90;2.90;;;;;;;;;;4999344;28;99005;-72
2022/04/24 13:48:24;;;;;;;6.90;2.88;;;;;;;;;;4998256;28;99621;-72
2022/04/24 13:50:50;;;;;;;3.17;2.97;;;;;;;;;;4979214;28;98656;-72
2022/04/24 13:53:17;;;;;;;2.55;2.33;;;;;;;;;;4993472;28;99292;-72
2022/04/24 13:55:43;;;;;;;2.92;2.72;;;;;;;;;;5000549;28;99969;-71
2022/04/24 13:58:09;;;;;;;2.95;2.50;;;;;;;;;;4991023;28;100744;-72
2022/04/24 14:00:36;;;;;;;7.05;2.50;;;;;;;;;;4993845;28;100352;-71
2022/04/24 14:03:03;;;;;;;4.43;2.28;;;;;;;;;;4999221;28;99859;-72
2022/04/24 14:05:31;;;;;;;3.15;1.95;;;;;;;;;;4994416;28;100297;-73
2022/04/24 14:07:57;;;;;;;48.15;5.53;;;;;;;;;;4995172;28;100329;-71
2022/04/24 14:10:24;;;;;;;32.10;4.57;;;;;;;;;;4984340;28;98626;-72
2022/04/24 14:12:51;;;;;;;3.30;2.05;;;;;;;;;;4979365;28;100060;-72
2022/04/24 14:15:18;;;;;;;3.88;2.30;;;;;;;;;;4986603;28;100260;-71
2022/04/24 14:17:44;;;;;;;43.78;5.63;;;;;;;;;;4986297;28;100254;-72
2022/04/24 14:20:13;;;;;;;38.38;4.13;;;;;;;;;;4985312;28;101116;-72
2022/04/24 14:22:59;;;;;;;3.58;1.85;;;;;;;;;;4987725;28;100022;-71
2022/04/24 14:25:26;;;;;;;1.80;1.70;;;;;;;;;;4980598;28;100108;-72
2022/04/24 14:27:52;;;;;;;4.80;2.00;;;;;;;;;;4987108;28;100288;-71
2022/04/24 14:30:20;;;;;;;5.80;2.30;;;;;;;;;;4986760;28;99734;-71
2022/04/24 14:32:47;;;;;;;4.95;2.40;;;;;;;;;;4983467;28;99954;-72
2022/04/24 14:35:16;;;;;;;22.52;2.90;;;;;;;;;;4981104;28;100353;-72
2022/04/24 14:37:42;;;;;;;4.00;1.90;;;;;;;;;;4984258;28;97803;-72
2022/04/24 14:40:09;;;;;;;7.20;1.90;;;;;;;;;;4986591;28;100287;-72
2022/04/24 14:42:36;;;;;;;2.03;1.88;;;;;;;;;;4993045;28;99256;-71
2022/04/24 14:45:03;;;;;;;5.97;2.22;;;;;;;;;;4983495;28;100384;-72
2022/04/24 14:56:07;;;;;;;1.85;1.75;;;;;;;;;;5010673;28;100472;-71
2022/04/24 14:58:34;;;;;;;2.85;1.85;;;;;;;;;;4998675;28;99093;-71